sensor_id;sensor_type;location;lat;lon;timestamp;temperature;humidity
810;DHT22;387;48.772;9.186;2022-10-16T00:01:20;17.10;91.00
810;DHT22;387;48.772;9.186;2022-10-16T00:03:47;17.10;91.20
810;DHT22;387;48.772;9.186;2022-10-16T00:06:14;17.10;91.20
810;DHT22;387;48.772;9.186;2022-10-16T00:08:40;17.20;91.10
810;DHT22;387;48.772;9.186;2022-10-16T00:11:11;17.20;90.90
810;DHT22;387;48.772;9.186;2022-10-16T00:13:39;17.20;91.00
810;DHT22;387;48.772;9.186;2022-10-16T00:16:05;17.10;91.00
810;DHT22;387;48.772;9.186;2022-10-16T00:18:31;17.10;91.00
810;DHT22;387;48.772;9.186;2022-10-16T00:21:03;17.10;91.00
810;DHT22;387;48.772;9.186;2022-10-16T00:23:29;17.00;91.10
810;DHT22;387;48.772;9.186;2022-10-16T00:25:59;17.00;91.10
810;DHT22;387;48.772;9.186;2022-10-16T00:28:25;17.00;91.30
810;DHT22;387;48.772;9.186;2022-10-16T00:30:50;17.00;91.20
810;DHT22;387;48.772;9.186;2022-10-16T00:33:16;17.00;91.30
810;DHT22;387;48.772;9.186;2022-10-16T00:35:42;16.90;91.30
810;DHT22;387;48.772;9.186;2022-10-16T00:38:07;16.90;91.50
810;DHT22;387;48.772;9.186;2022-10-16T00:40:33;16.90;91.70
810;DHT22;387;48.772;9.186;2022-10-16T00:42:58;16.80;91.80
810;DHT22;387;48.772;9.186;2022-10-16T00:45:24;16.80;91.80
810;DHT22;387;48.772;9.186;2022-10-16T00:47:51;16.70;91.90
810;DHT22;387;48.772;9.186;2022-10-16T00:50:30;16.70;92.20
810;DHT22;387;48.772;9.186;2022-10-16T00:52:56;16.70;92.40
810;DHT22;387;48.772;9.186;2022-10-16T00:55:22;16.70;92.30
810;DHT22;387;48.772;9.186;2022-10-16T00:57:50;16.60;92.50
810;DHT22;387;48.772;9.186;2022-10-16T01:00:19;16.60;92.50
810;DHT22;387;48.772;9.186;2022-10-16T01:02:55;16.60;92.40
810;DHT22;387;48.772;9.186;2022-10-16T01:05:23;16.60;92.50
810;DHT22;387;48.772;9.186;2022-10-16T01:08:16;16.50;92.50
810;DHT22;387;48.772;9.186;2022-10-16T01:13:41;16.60;92.70
810;DHT22;387;48.772;9.186;2022-10-16T01:16:26;16.60;92.70
810;DHT22;387;48.772;9.186;2022-10-16T01:19:00;16.60;92.50
810;DHT22;387;48.772;9.186;2022-10-16T01:21:37;16.60;92.20
810;DHT22;387;48.772;9.186;2022-10-16T01:24:33;16.70;92.20
810;DHT22;387;48.772;9.186;2022-10-16T01:27:26;16.60;92.10
810;DHT22;387;48.772;9.186;2022-10-16T01:35:16;16.60;92.30
810;DHT22;387;48.772;9.186;2022-10-16T01:37:48;16.50;92.40
810;DHT22;387;48.772;9.186;2022-10-16T01:40:19;16.50;92.60
810;DHT22;387;48.772;9.186;2022-10-16T01:42:53;16.50;92.60
810;DHT22;387;48.772;9.186;2022-10-16T01:45:21;16.50;92.60
810;DHT22;387;48.772;9.186;2022-10-16T01:47:48;16.60;92.60
810;DHT22;387;48.772;9.186;2022-10-16T01:50:16;16.60;92.50
810;DHT22;387;48.772;9.186;2022-10-16T01:52:46;16.50;92.50
810;DHT22;387;48.772;9.186;2022-10-16T01:55:16;16.50;92.60
810;DHT22;387;48.772;9.186;2022-10-16T01:57:46;16.60;92.50
810;DHT22;387;48.772;9.186;2022-10-16T02:00:13;16.60;92.50
810;DHT22;387;48.772;9.186;2022-10-16T02:02:41;16.60;92.30
810;DHT22;387;48.772;9.186;2022-10-16T02:05:18;16.70;92.30
810;DHT22;387;48.772;9.186;2022-10-16T02:07:45;16.60;92.30
810;DHT22;387;48.772;9.186;2022-10-16T02:10:11;16.60;92.30
810;DHT22;387;48.772;9.186;2022-10-16T02:12:39;16.50;92.00
810;DHT22;387;48.772;9.186;2022-10-16T02:15:06;16.60;92.10
810;DHT22;387;48.772;9.186;2022-10-16T02:17:32;16.60;92.20
810;DHT22;387;48.772;9.186;2022-10-16T02:19:59;16.70;92.10
810;DHT22;387;48.772;9.186;2022-10-16T02:22:30;16.80;91.90
810;DHT22;387;48.772;9.186;2022-10-16T02:25:57;16.80;91.80
810;DHT22;387;48.772;9.186;2022-10-16T02:28:22;16.80;91.70
810;DHT22;387;48.772;9.186;2022-10-16T02:31:01;16.80;91.70
810;DHT22;387;48.772;9.186;2022-10-16T02:33:29;16.70;91.90
810;DHT22;387;48.772;9.186;2022-10-16T02:35:57;16.70;91.90
810;DHT22;387;48.772;9.186;2022-10-16T02:38:23;16.80;91.70
810;DHT22;387;48.772;9.186;2022-10-16T02:40:50;16.70;91.90
810;DHT22;387;48.772;9.186;2022-10-16T02:43:16;16.70;91.90
810;DHT22;387;48.772;9.186;2022-10-16T02:45:42;16.70;91.90
810;DHT22;387;48.772;9.186;2022-10-16T02:48:07;16.70;91.90
810;DHT22;387;48.772;9.186;2022-10-16T02:50:33;16.80;91.90
810;DHT22;387;48.772;9.186;2022-10-16T02:52:59;16.80;91.80
810;DHT22;387;48.772;9.186;2022-10-16T02:55:24;16.80;91.80
810;DHT22;387;48.772;9.186;2022-10-16T02:57:50;16.90;91.60
810;DHT22;387;48.772;9.186;2022-10-16T03:00:16;16.80;91.40
810;DHT22;387;48.772;9.186;2022-10-16T03:02:43;16.80;91.30
810;DHT22;387;48.772;9.186;2022-10-16T03:05:09;16.80;91.10
810;DHT22;387;48.772;9.186;2022-10-16T03:07:35;16.80;91.20
810;DHT22;387;48.772;9.186;2022-10-16T03:10:00;16.80;91.10
810;DHT22;387;48.772;9.186;2022-10-16T03:12:27;16.70;91.40
810;DHT22;387;48.772;9.186;2022-10-16T03:14:53;16.80;91.40
810;DHT22;387;48.772;9.186;2022-10-16T03:17:19;16.80;91.00
810;DHT22;387;48.772;9.186;2022-10-16T03:19:44;16.80;91.10
810;DHT22;387;48.772;9.186;2022-10-16T03:22:10;16.80;91.20
810;DHT22;387;48.772;9.186;2022-10-16T03:24:36;16.70;91.30
810;DHT22;387;48.772;9.186;2022-10-16T03:27:02;16.60;91.50
810;DHT22;387;48.772;9.186;2022-10-16T03:29:27;16.60;91.60
810;DHT22;387;48.772;9.186;2022-10-16T03:31:55;16.50;91.70
810;DHT22;387;48.772;9.186;2022-10-16T03:34:20;16.60;91.90
810;DHT22;387;48.772;9.186;2022-10-16T03:36:46;16.60;91.70
810;DHT22;387;48.772;9.186;2022-10-16T03:39:11;16.60;91.70
810;DHT22;387;48.772;9.186;2022-10-16T03:41:37;16.60;91.70
810;DHT22;387;48.772;9.186;2022-10-16T03:44:02;16.60;91.80
810;DHT22;387;48.772;9.186;2022-10-16T03:46:28;16.60;91.90
810;DHT22;387;48.772;9.186;2022-10-16T03:48:54;16.40;92.00
810;DHT22;387;48.772;9.186;2022-10-16T03:51:20;16.40;92.20
810;DHT22;387;48.772;9.186;2022-10-16T03:53:45;16.50;92.30
810;DHT22;387;48.772;9.186;2022-10-16T03:56:11;16.50;92.30
810;DHT22;387;48.772;9.186;2022-10-16T03:58:37;16.60;92.20
810;DHT22;387;48.772;9.186;2022-10-16T04:01:02;16.60;92.20
810;DHT22;387;48.772;9.186;2022-10-16T04:03:28;16.50;92.20
810;DHT22;387;48.772;9.186;2022-10-16T04:05:53;16.50;92.40
810;DHT22;387;48.772;9.186;2022-10-16T04:08:19;16.40;92.50
810;DHT22;387;48.772;9.186;2022-10-16T04:10:45;16.40;92.70
810;DHT22;387;48.772;9.186;2022-10-16T04:13:11;16.40;92.80
810;DHT22;387;48.772;9.186;2022-10-16T04:15:37;16.40;92.80
810;DHT22;387;48.772;9.186;2022-10-16T04:18:03;16.30;92.80
810;DHT22;387;48.772;9.186;2022-10-16T04:20:29;16.30;92.80
810;DHT22;387;48.772;9.186;2022-10-16T04:22:55;16.20;92.90
810;DHT22;387;48.772;9.186;2022-10-16T04:25:21;16.20;92.90
810;DHT22;387;48.772;9.186;2022-10-16T04:27:46;16.20;92.90
810;DHT22;387;48.772;9.186;2022-10-16T04:30:12;16.20;92.90
810;DHT22;387;48.772;9.186;2022-10-16T04:32:38;16.30;92.70
810;DHT22;387;48.772;9.186;2022-10-16T04:35:04;16.30;92.60
810;DHT22;387;48.772;9.186;2022-10-16T04:37:29;16.30;92.70
810;DHT22;387;48.772;9.186;2022-10-16T04:39:55;16.30;92.80
810;DHT22;387;48.772;9.186;2022-10-16T04:42:21;16.30;92.70
810;DHT22;387;48.772;9.186;2022-10-16T04:44:47;16.30;92.60
810;DHT22;387;48.772;9.186;2022-10-16T04:47:12;16.30;92.70
810;DHT22;387;48.772;9.186;2022-10-16T04:49:38;16.30;92.90
810;DHT22;387;48.772;9.186;2022-10-16T04:52:04;16.30;92.90
810;DHT22;387;48.772;9.186;2022-10-16T04:54:30;16.20;92.90
810;DHT22;387;48.772;9.186;2022-10-16T04:56:55;16.20;93.00
810;DHT22;387;48.772;9.186;2022-10-16T04:59:21;16.20;93.00
810;DHT22;387;48.772;9.186;2022-10-16T05:01:47;16.30;92.70
810;DHT22;387;48.772;9.186;2022-10-16T05:04:13;16.40;92.40
810;DHT22;387;48.772;9.186;2022-10-16T05:06:40;16.40;92.30
810;DHT22;387;48.772;9.186;2022-10-16T05:09:07;16.20;92.50
810;DHT22;387;48.772;9.186;2022-10-16T05:11:33;16.30;92.60
810;DHT22;387;48.772;9.186;2022-10-16T05:13:59;16.20;92.60
810;DHT22;387;48.772;9.186;2022-10-16T05:16:25;16.20;92.70
810;DHT22;387;48.772;9.186;2022-10-16T05:18:54;16.10;92.80
810;DHT22;387;48.772;9.186;2022-10-16T05:21:20;16.20;93.00
810;DHT22;387;48.772;9.186;2022-10-16T05:23:46;16.20;93.00
810;DHT22;387;48.772;9.186;2022-10-16T05:26:11;16.20;92.90
810;DHT22;387;48.772;9.186;2022-10-16T05:28:37;16.20;93.10
810;DHT22;387;48.772;9.186;2022-10-16T05:31:07;16.20;93.10
810;DHT22;387;48.772;9.186;2022-10-16T05:33:33;16.20;93.10
810;DHT22;387;48.772;9.186;2022-10-16T05:36:03;16.20;93.10
810;DHT22;387;48.772;9.186;2022-10-16T05:38:29;16.20;93.20
810;DHT22;387;48.772;9.186;2022-10-16T05:40:55;16.10;93.10
810;DHT22;387;48.772;9.186;2022-10-16T05:43:21;16.20;93.10
810;DHT22;387;48.772;9.186;2022-10-16T05:45:55;16.10;93.10
810;DHT22;387;48.772;9.186;2022-10-16T05:48:20;16.00;93.20
810;DHT22;387;48.772;9.186;2022-10-16T05:50:46;16.10;93.40
810;DHT22;387;48.772;9.186;2022-10-16T05:53:11;16.10;93.30
810;DHT22;387;48.772;9.186;2022-10-16T05:55:37;16.00;93.40
810;DHT22;387;48.772;9.186;2022-10-16T05:58:02;16.00;93.60
810;DHT22;387;48.772;9.186;2022-10-16T06:00:28;16.00;93.60
810;DHT22;387;48.772;9.186;2022-10-16T06:02:53;16.00;93.70
810;DHT22;387;48.772;9.186;2022-10-16T06:05:19;16.00;93.70
810;DHT22;387;48.772;9.186;2022-10-16T06:07:45;16.00;93.70
810;DHT22;387;48.772;9.186;2022-10-16T06:10:10;16.10;93.60
810;DHT22;387;48.772;9.186;2022-10-16T06:12:36;16.10;93.60
810;DHT22;387;48.772;9.186;2022-10-16T06:15:01;16.20;93.50
810;DHT22;387;48.772;9.186;2022-10-16T06:17:27;16.20;93.40
810;DHT22;387;48.772;9.186;2022-10-16T06:19:52;16.20;93.40
810;DHT22;387;48.772;9.186;2022-10-16T06:22:18;16.30;93.20
810;DHT22;387;48.772;9.186;2022-10-16T06:24:43;16.30;93.10
810;DHT22;387;48.772;9.186;2022-10-16T06:27:09;16.30;93.10
810;DHT22;387;48.772;9.186;2022-10-16T06:29:35;16.30;93.00
810;DHT22;387;48.772;9.186;2022-10-16T06:32:00;16.20;93.20
810;DHT22;387;48.772;9.186;2022-10-16T06:34:26;16.30;93.30
810;DHT22;387;48.772;9.186;2022-10-16T06:36:51;16.40;93.20
810;DHT22;387;48.772;9.186;2022-10-16T06:39:17;16.40;93.10
810;DHT22;387;48.772;9.186;2022-10-16T06:41:42;16.40;92.90
810;DHT22;387;48.772;9.186;2022-10-16T06:44:08;16.40;93.10
810;DHT22;387;48.772;9.186;2022-10-16T06:46:34;16.50;93.10
810;DHT22;387;48.772;9.186;2022-10-16T06:49:00;16.50;92.90
810;DHT22;387;48.772;9.186;2022-10-16T06:51:26;16.50;92.90
810;DHT22;387;48.772;9.186;2022-10-16T06:53:55;16.50;92.80
810;DHT22;387;48.772;9.186;2022-10-16T06:56:26;16.60;93.00
810;DHT22;387;48.772;9.186;2022-10-16T06:58:52;16.60;92.90
810;DHT22;387;48.772;9.186;2022-10-16T07:01:19;16.50;92.80
810;DHT22;387;48.772;9.186;2022-10-16T07:03:46;16.60;92.90
810;DHT22;387;48.772;9.186;2022-10-16T07:06:15;16.60;92.60
810;DHT22;387;48.772;9.186;2022-10-16T07:08:42;16.70;92.60
810;DHT22;387;48.772;9.186;2022-10-16T07:11:10;16.80;92.60
810;DHT22;387;48.772;9.186;2022-10-16T07:13:37;17.00;92.50
810;DHT22;387;48.772;9.186;2022-10-16T07:18:36;16.90;91.80
810;DHT22;387;48.772;9.186;2022-10-16T07:21:12;17.00;92.00
810;DHT22;387;48.772;9.186;2022-10-16T07:23:38;17.00;91.80
810;DHT22;387;48.772;9.186;2022-10-16T07:26:04;17.10;91.70
810;DHT22;387;48.772;9.186;2022-10-16T07:28:31;17.10;91.50
810;DHT22;387;48.772;9.186;2022-10-16T07:31:04;16.90;91.40
810;DHT22;387;48.772;9.186;2022-10-16T07:33:31;17.00;91.80
810;DHT22;387;48.772;9.186;2022-10-16T07:35:57;17.00;91.60
810;DHT22;387;48.772;9.186;2022-10-16T07:38:23;17.10;91.70
810;DHT22;387;48.772;9.186;2022-10-16T07:40:56;17.10;91.70
810;DHT22;387;48.772;9.186;2022-10-16T07:43:21;17.10;91.40
810;DHT22;387;48.772;9.186;2022-10-16T07:45:48;17.10;91.50
810;DHT22;387;48.772;9.186;2022-10-16T07:48:15;17.20;91.40
810;DHT22;387;48.772;9.186;2022-10-16T07:50:41;17.20;91.10
810;DHT22;387;48.772;9.186;2022-10-16T07:53:06;17.30;90.80
810;DHT22;387;48.772;9.186;2022-10-16T07:55:32;17.50;90.60
810;DHT22;387;48.772;9.186;2022-10-16T07:57:58;17.40;90.10
810;DHT22;387;48.772;9.186;2022-10-16T08:00:23;17.40;90.10
810;DHT22;387;48.772;9.186;2022-10-16T08:02:49;17.50;90.30
810;DHT22;387;48.772;9.186;2022-10-16T08:05:14;17.70;89.70
810;DHT22;387;48.772;9.186;2022-10-16T08:07:40;17.60;88.70
810;DHT22;387;48.772;9.186;2022-10-16T08:10:06;17.70;89.00
810;DHT22;387;48.772;9.186;2022-10-16T08:12:31;17.90;88.30
810;DHT22;387;48.772;9.186;2022-10-16T08:14:57;17.80;87.80
810;DHT22;387;48.772;9.186;2022-10-16T08:17:22;18.00;88.10
810;DHT22;387;48.772;9.186;2022-10-16T08:19:48;18.20;87.70
810;DHT22;387;48.772;9.186;2022-10-16T08:22:14;18.40;86.90
810;DHT22;387;48.772;9.186;2022-10-16T08:24:40;18.60;86.60
810;DHT22;387;48.772;9.186;2022-10-16T08:27:06;18.60;86.00
810;DHT22;387;48.772;9.186;2022-10-16T08:29:32;18.70;85.90
810;DHT22;387;48.772;9.186;2022-10-16T08:31:58;18.70;85.50
810;DHT22;387;48.772;9.186;2022-10-16T08:34:23;18.80;85.50
810;DHT22;387;48.772;9.186;2022-10-16T08:36:49;18.90;84.00
810;DHT22;387;48.772;9.186;2022-10-16T08:39:16;18.90;83.10
810;DHT22;387;48.772;9.186;2022-10-16T08:50:13;19.20;81.20
810;DHT22;387;48.772;9.186;2022-10-16T08:52:40;19.20;80.80
810;DHT22;387;48.772;9.186;2022-10-16T08:55:17;19.10;80.50
810;DHT22;387;48.772;9.186;2022-10-16T08:57:44;19.10;80.80
810;DHT22;387;48.772;9.186;2022-10-16T09:00:13;19.20;80.00
810;DHT22;387;48.772;9.186;2022-10-16T09:03:33;19.20;80.20
810;DHT22;387;48.772;9.186;2022-10-16T09:06:29;19.20;80.00
810;DHT22;387;48.772;9.186;2022-10-16T09:09:24;19.30;79.70
810;DHT22;387;48.772;9.186;2022-10-16T09:12:12;19.40;79.20
810;DHT22;387;48.772;9.186;2022-10-16T09:18:00;19.60;77.60
810;DHT22;387;48.772;9.186;2022-10-16T09:20:51;19.80;73.90
810;DHT22;387;48.772;9.186;2022-10-16T09:23:37;20.00;72.40
810;DHT22;387;48.772;9.186;2022-10-16T09:26:05;20.30;71.40
810;DHT22;387;48.772;9.186;2022-10-16T09:28:31;20.30;72.10
810;DHT22;387;48.772;9.186;2022-10-16T09:30:57;20.30;72.40
810;DHT22;387;48.772;9.186;2022-10-16T09:33:28;20.30;72.70
810;DHT22;387;48.772;9.186;2022-10-16T09:35:56;20.30;73.50
810;DHT22;387;48.772;9.186;2022-10-16T09:38:29;20.30;73.70
810;DHT22;387;48.772;9.186;2022-10-16T09:41:00;20.30;73.30
810;DHT22;387;48.772;9.186;2022-10-16T09:46:08;20.30;73.50
810;DHT22;387;48.772;9.186;2022-10-16T09:48:42;20.40;73.00
810;DHT22;387;48.772;9.186;2022-10-16T09:51:29;20.40;73.30
810;DHT22;387;48.772;9.186;2022-10-16T09:56:36;20.50;73.00
810;DHT22;387;48.772;9.186;2022-10-16T10:01:38;20.90;72.30
810;DHT22;387;48.772;9.186;2022-10-16T10:04:05;21.00;71.80
810;DHT22;387;48.772;9.186;2022-10-16T10:06:52;21.10;71.60
810;DHT22;387;48.772;9.186;2022-10-16T10:09:23;21.20;71.70
810;DHT22;387;48.772;9.186;2022-10-16T10:11:59;21.30;71.10
810;DHT22;387;48.772;9.186;2022-10-16T10:14:41;21.40;71.40
810;DHT22;387;48.772;9.186;2022-10-16T10:22:45;21.70;69.70
810;DHT22;387;48.772;9.186;2022-10-16T10:46:55;23.60;65.10
810;DHT22;387;48.772;9.186;2022-10-16T10:49:33;23.50;65.70
810;DHT22;387;48.772;9.186;2022-10-16T10:54:46;23.40;67.30
810;DHT22;387;48.772;9.186;2022-10-16T10:57:36;23.30;68.60
810;DHT22;387;48.772;9.186;2022-10-16T11:00:12;23.70;68.60
810;DHT22;387;48.772;9.186;2022-10-16T11:05:59;24.30;66.90
810;DHT22;387;48.772;9.186;2022-10-16T11:08:50;24.40;66.70
810;DHT22;387;48.772;9.186;2022-10-16T11:16:46;23.60;67.20
810;DHT22;387;48.772;9.186;2022-10-16T11:19:25;23.30;68.60
810;DHT22;387;48.772;9.186;2022-10-16T11:24:55;23.50;68.60
810;DHT22;387;48.772;9.186;2022-10-16T11:30:44;24.30;68.30
810;DHT22;387;48.772;9.186;2022-10-16T11:33:27;24.50;66.00
810;DHT22;387;48.772;9.186;2022-10-16T11:38:55;23.20;69.20
810;DHT22;387;48.772;9.186;2022-10-16T11:41:42;23.30;69.80
810;DHT22;387;48.772;9.186;2022-10-16T11:47:26;23.40;69.10
810;DHT22;387;48.772;9.186;2022-10-16T11:49:58;23.40;69.40
810;DHT22;387;48.772;9.186;2022-10-16T11:52:40;23.80;68.50
810;DHT22;387;48.772;9.186;2022-10-16T11:55:16;24.20;66.70
810;DHT22;387;48.772;9.186;2022-10-16T11:58:03;24.80;66.90
810;DHT22;387;48.772;9.186;2022-10-16T12:07:01;25.90;60.70
810;DHT22;387;48.772;9.186;2022-10-16T12:08:54;26.00;57.70
810;DHT22;387;48.772;9.186;2022-10-16T12:14:06;25.40;59.30
810;DHT22;387;48.772;9.186;2022-10-16T12:16:32;25.00;60.60
810;DHT22;387;48.772;9.186;2022-10-16T12:19:14;25.60;58.90
810;DHT22;387;48.772;9.186;2022-10-16T12:21:40;25.50;58.20
810;DHT22;387;48.772;9.186;2022-10-16T12:24:06;25.70;59.20
810;DHT22;387;48.772;9.186;2022-10-16T12:26:52;26.60;57.70
810;DHT22;387;48.772;9.186;2022-10-16T12:31:53;27.50;53.60
810;DHT22;387;48.772;9.186;2022-10-16T12:34:42;26.70;55.00
810;DHT22;387;48.772;9.186;2022-10-16T12:39:36;26.50;55.20
810;DHT22;387;48.772;9.186;2022-10-16T12:44:48;26.50;56.00
810;DHT22;387;48.772;9.186;2022-10-16T12:47:36;25.60;58.80
810;DHT22;387;48.772;9.186;2022-10-16T12:50:05;25.80;58.40
810;DHT22;387;48.772;9.186;2022-10-16T12:52:48;25.70;58.80
810;DHT22;387;48.772;9.186;2022-10-16T12:55:18;25.80;58.90
810;DHT22;387;48.772;9.186;2022-10-16T12:58:15;26.00;57.70
810;DHT22;387;48.772;9.186;2022-10-16T13:00:56;25.30;60.00
810;DHT22;387;48.772;9.186;2022-10-16T13:08:42;24.40;62.60
810;DHT22;387;48.772;9.186;2022-10-16T13:17:09;24.00;64.50
810;DHT22;387;48.772;9.186;2022-10-16T13:28:11;24.50;63.40
810;DHT22;387;48.772;9.186;2022-10-16T13:30:43;24.60;62.90
810;DHT22;387;48.772;9.186;2022-10-16T13:35:35;24.10;64.10
810;DHT22;387;48.772;9.186;2022-10-16T13:38:10;24.10;63.80
810;DHT22;387;48.772;9.186;2022-10-16T13:40:36;24.20;64.40
810;DHT22;387;48.772;9.186;2022-10-16T13:43:02;24.30;63.70
810;DHT22;387;48.772;9.186;2022-10-16T13:45:28;24.50;63.70
810;DHT22;387;48.772;9.186;2022-10-16T13:48:04;24.70;63.70
810;DHT22;387;48.772;9.186;2022-10-16T13:50:30;24.90;63.90
810;DHT22;387;48.772;9.186;2022-10-16T13:53:25;24.90;62.30
810;DHT22;387;48.772;9.186;2022-10-16T13:55:51;24.80;62.90
810;DHT22;387;48.772;9.186;2022-10-16T13:58:16;25.00;63.80
810;DHT22;387;48.772;9.186;2022-10-16T14:00:59;25.20;63.50
810;DHT22;387;48.772;9.186;2022-10-16T14:03:26;25.30;63.20
810;DHT22;387;48.772;9.186;2022-10-16T14:06:00;25.40;63.50
810;DHT22;387;48.772;9.186;2022-10-16T14:08:27;25.50;63.20
810;DHT22;387;48.772;9.186;2022-10-16T14:10:58;25.60;62.30
810;DHT22;387;48.772;9.186;2022-10-16T14:13:32;25.60;62.90
810;DHT22;387;48.772;9.186;2022-10-16T14:16:00;25.60;62.80
810;DHT22;387;48.772;9.186;2022-10-16T14:18:27;25.60;62.80
810;DHT22;387;48.772;9.186;2022-10-16T14:20:53;25.60;63.50
810;DHT22;387;48.772;9.186;2022-10-16T14:23:31;25.60;64.20
810;DHT22;387;48.772;9.186;2022-10-16T14:26:27;25.60;64.10
810;DHT22;387;48.772;9.186;2022-10-16T14:29:21;25.50;65.30
810;DHT22;387;48.772;9.186;2022-10-16T14:31:59;25.40;65.70
810;DHT22;387;48.772;9.186;2022-10-16T14:37:06;25.30;66.30
810;DHT22;387;48.772;9.186;2022-10-16T14:39:34;25.20;66.40
810;DHT22;387;48.772;9.186;2022-10-16T14:42:00;25.10;66.40
810;DHT22;387;48.772;9.186;2022-10-16T14:44:32;25.00;66.60
810;DHT22;387;48.772;9.186;2022-10-16T14:47:07;25.00;66.70
810;DHT22;387;48.772;9.186;2022-10-16T14:49:33;24.90;67.00
810;DHT22;387;48.772;9.186;2022-10-16T14:51:59;24.80;67.50
810;DHT22;387;48.772;9.186;2022-10-16T14:54:24;24.80;67.70
810;DHT22;387;48.772;9.186;2022-10-16T14:56:55;24.70;67.90
810;DHT22;387;48.772;9.186;2022-10-16T14:59:41;24.70;68.20
810;DHT22;387;48.772;9.186;2022-10-16T15:04:48;24.60;68.80
810;DHT22;387;48.772;9.186;2022-10-16T15:07:14;24.50;68.90
810;DHT22;387;48.772;9.186;2022-10-16T15:09:40;24.60;69.20
810;DHT22;387;48.772;9.186;2022-10-16T15:12:05;24.60;67.70
810;DHT22;387;48.772;9.186;2022-10-16T15:14:31;24.70;68.20
810;DHT22;387;48.772;9.186;2022-10-16T15:16:57;24.80;68.30
810;DHT22;387;48.772;9.186;2022-10-16T15:19:23;24.70;68.60
810;DHT22;387;48.772;9.186;2022-10-16T15:21:48;24.70;68.60
810;DHT22;387;48.772;9.186;2022-10-16T15:24:14;24.80;68.80
810;DHT22;387;48.772;9.186;2022-10-16T15:26:40;24.80;68.90
810;DHT22;387;48.772;9.186;2022-10-16T15:29:06;24.60;69.20
810;DHT22;387;48.772;9.186;2022-10-16T15:31:32;24.50;69.20
810;DHT22;387;48.772;9.186;2022-10-16T15:33:57;24.50;69.40
810;DHT22;387;48.772;9.186;2022-10-16T15:36:33;24.50;69.40
810;DHT22;387;48.772;9.186;2022-10-16T15:39:02;24.40;68.60
810;DHT22;387;48.772;9.186;2022-10-16T15:41:28;24.30;69.50
810;DHT22;387;48.772;9.186;2022-10-16T15:43:53;24.10;70.40
810;DHT22;387;48.772;9.186;2022-10-16T15:46:21;24.00;70.50
810;DHT22;387;48.772;9.186;2022-10-16T15:48:49;23.90;70.80
810;DHT22;387;48.772;9.186;2022-10-16T15:51:15;23.70;71.00
810;DHT22;387;48.772;9.186;2022-10-16T15:53:41;23.60;71.10
810;DHT22;387;48.772;9.186;2022-10-16T15:56:08;23.40;71.70
810;DHT22;387;48.772;9.186;2022-10-16T15:58:34;23.20;72.00
810;DHT22;387;48.772;9.186;2022-10-16T16:01:01;23.10;72.10
810;DHT22;387;48.772;9.186;2022-10-16T16:03:29;23.00;72.60
810;DHT22;387;48.772;9.186;2022-10-16T16:05:55;22.90;72.70
810;DHT22;387;48.772;9.186;2022-10-16T16:08:20;22.80;73.60
810;DHT22;387;48.772;9.186;2022-10-16T16:13:25;22.50;74.50
810;DHT22;387;48.772;9.186;2022-10-16T16:15:51;22.30;74.80
810;DHT22;387;48.772;9.186;2022-10-16T16:18:16;22.20;74.90
810;DHT22;387;48.772;9.186;2022-10-16T16:20:42;22.10;75.50
810;DHT22;387;48.772;9.186;2022-10-16T16:23:07;21.90;75.80
810;DHT22;387;48.772;9.186;2022-10-16T16:25:33;21.80;76.20
810;DHT22;387;48.772;9.186;2022-10-16T16:27:58;21.60;76.70
810;DHT22;387;48.772;9.186;2022-10-16T16:30:24;21.50;77.30
810;DHT22;387;48.772;9.186;2022-10-16T16:32:49;21.40;77.60
810;DHT22;387;48.772;9.186;2022-10-16T16:35:15;21.20;78.10
810;DHT22;387;48.772;9.186;2022-10-16T16:37:40;21.20;78.60
810;DHT22;387;48.772;9.186;2022-10-16T16:40:06;21.10;79.00
810;DHT22;387;48.772;9.186;2022-10-16T16:42:32;20.90;79.00
810;DHT22;387;48.772;9.186;2022-10-16T16:44:57;20.80;79.90
810;DHT22;387;48.772;9.186;2022-10-16T16:47:23;20.80;80.00
810;DHT22;387;48.772;9.186;2022-10-16T16:49:48;20.70;79.70
810;DHT22;387;48.772;9.186;2022-10-16T16:52:14;20.60;79.70
810;DHT22;387;48.772;9.186;2022-10-16T16:54:40;20.50;80.00
810;DHT22;387;48.772;9.186;2022-10-16T16:57:05;20.40;80.30
810;DHT22;387;48.772;9.186;2022-10-16T16:59:31;20.30;81.10
810;DHT22;387;48.772;9.186;2022-10-16T17:02:00;20.30;81.80
810;DHT22;387;48.772;9.186;2022-10-16T17:04:25;20.20;81.90
810;DHT22;387;48.772;9.186;2022-10-16T17:06:55;20.20;81.90
810;DHT22;387;48.772;9.186;2022-10-16T17:09:21;20.20;81.90
810;DHT22;387;48.772;9.186;2022-10-16T17:11:47;20.10;81.90
810;DHT22;387;48.772;9.186;2022-10-16T17:14:14;20.10;81.70
810;DHT22;387;48.772;9.186;2022-10-16T17:16:40;20.00;81.80
810;DHT22;387;48.772;9.186;2022-10-16T17:19:12;19.90;81.80
810;DHT22;387;48.772;9.186;2022-10-16T17:21:37;19.90;82.10
810;DHT22;387;48.772;9.186;2022-10-16T17:24:04;19.80;82.10
810;DHT22;387;48.772;9.186;2022-10-16T17:26:30;19.80;82.20
810;DHT22;387;48.772;9.186;2022-10-16T17:28:58;19.70;82.50
810;DHT22;387;48.772;9.186;2022-10-16T17:31:27;19.60;83.00
810;DHT22;387;48.772;9.186;2022-10-16T17:33:53;19.60;83.40
810;DHT22;387;48.772;9.186;2022-10-16T17:36:20;19.60;83.80
810;DHT22;387;48.772;9.186;2022-10-16T17:38:46;19.50;84.10
810;DHT22;387;48.772;9.186;2022-10-16T17:41:18;19.50;84.10
810;DHT22;387;48.772;9.186;2022-10-16T17:43:44;19.40;84.70
810;DHT22;387;48.772;9.186;2022-10-16T17:46:12;19.30;84.90
810;DHT22;387;48.772;9.186;2022-10-16T17:48:43;19.20;85.20
810;DHT22;387;48.772;9.186;2022-10-16T17:51:11;19.10;85.30
810;DHT22;387;48.772;9.186;2022-10-16T17:53:38;19.10;85.70
810;DHT22;387;48.772;9.186;2022-10-16T17:56:09;19.10;86.50
810;DHT22;387;48.772;9.186;2022-10-16T17:58:35;18.90;86.80
810;DHT22;387;48.772;9.186;2022-10-16T18:01:02;18.90;87.00
810;DHT22;387;48.772;9.186;2022-10-16T18:03:35;18.80;87.30
810;DHT22;387;48.772;9.186;2022-10-16T18:06:01;18.80;87.40
810;DHT22;387;48.772;9.186;2022-10-16T18:08:28;18.80;87.30
810;DHT22;387;48.772;9.186;2022-10-16T18:10:54;18.70;87.60
810;DHT22;387;48.772;9.186;2022-10-16T18:13:20;18.70;87.80
810;DHT22;387;48.772;9.186;2022-10-16T18:15:46;18.60;88.00
810;DHT22;387;48.772;9.186;2022-10-16T18:18:11;18.60;88.10
810;DHT22;387;48.772;9.186;2022-10-16T18:20:37;18.50;88.70
810;DHT22;387;48.772;9.186;2022-10-16T18:23:03;18.50;88.70
810;DHT22;387;48.772;9.186;2022-10-16T18:25:29;18.40;88.90
810;DHT22;387;48.772;9.186;2022-10-16T18:27:55;18.40;89.20
810;DHT22;387;48.772;9.186;2022-10-16T18:30:20;18.40;89.20
810;DHT22;387;48.772;9.186;2022-10-16T18:32:46;18.30;89.50
810;DHT22;387;48.772;9.186;2022-10-16T18:35:12;18.30;89.60
810;DHT22;387;48.772;9.186;2022-10-16T18:37:38;18.20;89.90
810;DHT22;387;48.772;9.186;2022-10-16T18:40:04;18.10;89.90
810;DHT22;387;48.772;9.186;2022-10-16T18:42:30;18.10;90.10
810;DHT22;387;48.772;9.186;2022-10-16T18:44:56;18.10;90.20
810;DHT22;387;48.772;9.186;2022-10-16T18:47:21;18.10;90.30
810;DHT22;387;48.772;9.186;2022-10-16T18:49:50;18.00;90.40
810;DHT22;387;48.772;9.186;2022-10-16T18:52:16;17.90;90.60
810;DHT22;387;48.772;9.186;2022-10-16T18:54:42;17.90;90.70